sensor_id;sensor_type;location;lat;lon;timestamp;temperature;humidity
56424;DHT22;42329;43.516;3.684;2022-09-12T00:00:42;17.20;99.90
56424;DHT22;42329;43.516;3.684;2022-09-12T00:03:11;17.10;99.90
56424;DHT22;42329;43.516;3.684;2022-09-12T00:05:39;17.10;99.90
56424;DHT22;42329;43.516;3.684;2022-09-12T00:08:06;17.10;99.90
56424;DHT22;42329;43.516;3.684;2022-09-12T00:10:36;17.10;99.90
56424;DHT22;42329;43.516;3.684;2022-09-12T00:13:02;17.10;99.90
56424;DHT22;42329;43.516;3.684;2022-09-12T00:15:29;17.10;99.90
56424;DHT22;42329;43.516;3.684;2022-09-12T00:17:56;17.10;99.90
56424;DHT22;42329;43.516;3.684;2022-09-12T00:20:25;17.10;99.90
56424;DHT22;42329;43.516;3.684;2022-09-12T00:22:52;17.00;99.90
56424;DHT22;42329;43.516;3.684;2022-09-12T00:25:19;17.00;99.90
56424;DHT22;42329;43.516;3.684;2022-09-12T00:27:46;17.00;99.90
56424;DHT22;42329;43.516;3.684;2022-09-12T00:30:13;17.00;99.90
56424;DHT22;42329;43.516;3.684;2022-09-12T00:32:40;17.00;99.90
56424;DHT22;42329;43.516;3.684;2022-09-12T00:35:07;17.10;99.90
56424;DHT22;42329;43.516;3.684;2022-09-12T00:37:35;17.10;99.90
56424;DHT22;42329;43.516;3.684;2022-09-12T00:40:02;17.10;99.90
56424;DHT22;42329;43.516;3.684;2022-09-12T00:42:29;17.10;99.90
56424;DHT22;42329;43.516;3.684;2022-09-12T00:44:56;17.00;99.90
56424;DHT22;42329;43.516;3.684;2022-09-12T00:47:24;17.00;99.90
56424;DHT22;42329;43.516;3.684;2022-09-12T00:49:57;16.90;99.90
56424;DHT22;42329;43.516;3.684;2022-09-12T00:52:26;16.90;99.90
56424;DHT22;42329;43.516;3.684;2022-09-12T00:54:58;16.90;99.90
56424;DHT22;42329;43.516;3.684;2022-09-12T00:57:27;16.80;99.90
56424;DHT22;42329;43.516;3.684;2022-09-12T00:59:55;16.90;99.90
56424;DHT22;42329;43.516;3.684;2022-09-12T01:02:24;16.90;99.90
56424;DHT22;42329;43.516;3.684;2022-09-12T01:04:51;16.90;99.90
56424;DHT22;42329;43.516;3.684;2022-09-12T01:07:18;16.90;99.90
56424;DHT22;42329;43.516;3.684;2022-09-12T01:09:45;16.90;99.90
56424;DHT22;42329;43.516;3.684;2022-09-12T01:12:14;16.80;99.90
56424;DHT22;42329;43.516;3.684;2022-09-12T01:14:42;16.80;99.90
56424;DHT22;42329;43.516;3.684;2022-09-12T01:17:10;16.80;99.90
56424;DHT22;42329;43.516;3.684;2022-09-12T01:22:34;16.80;99.90
56424;DHT22;42329;43.516;3.684;2022-09-12T01:25:05;16.80;99.90
56424;DHT22;42329;43.516;3.684;2022-09-12T01:27:46;16.70;99.90
56424;DHT22;42329;43.516;3.684;2022-09-12T01:30:21;16.70;99.90
56424;DHT22;42329;43.516;3.684;2022-09-12T01:32:54;16.70;99.90
56424;DHT22;42329;43.516;3.684;2022-09-12T01:35:23;16.70;99.90
56424;DHT22;42329;43.516;3.684;2022-09-12T01:37:53;16.60;99.90
56424;DHT22;42329;43.516;3.684;2022-09-12T01:40:25;16.60;99.90
56424;DHT22;42329;43.516;3.684;2022-09-12T01:43:00;16.60;99.90
56424;DHT22;42329;43.516;3.684;2022-09-12T01:45:31;16.70;99.90
56424;DHT22;42329;43.516;3.684;2022-09-12T01:48:00;16.70;99.90
56424;DHT22;42329;43.516;3.684;2022-09-12T01:50:29;16.70;99.90
56424;DHT22;42329;43.516;3.684;2022-09-12T01:52:58;16.70;99.90
56424;DHT22;42329;43.516;3.684;2022-09-12T01:55:27;16.70;99.90
56424;DHT22;42329;43.516;3.684;2022-09-12T01:57:56;16.70;99.90
56424;DHT22;42329;43.516;3.684;2022-09-12T02:00:24;16.70;99.90
56424;DHT22;42329;43.516;3.684;2022-09-12T02:02:54;16.70;99.90
56424;DHT22;42329;43.516;3.684;2022-09-12T02:05:24;16.70;99.90
56424;DHT22;42329;43.516;3.684;2022-09-12T02:07:54;16.80;99.90
56424;DHT22;42329;43.516;3.684;2022-09-12T02:10:23;16.80;99.90
56424;DHT22;42329;43.516;3.684;2022-09-12T02:12:51;16.90;99.90
56424;DHT22;42329;43.516;3.684;2022-09-12T02:15:19;16.90;99.90
56424;DHT22;42329;43.516;3.684;2022-09-12T02:17:49;16.90;99.90
56424;DHT22;42329;43.516;3.684;2022-09-12T02:20:18;16.90;99.90
56424;DHT22;42329;43.516;3.684;2022-09-12T02:22:46;16.90;99.90
56424;DHT22;42329;43.516;3.684;2022-09-12T02:25:14;16.90;99.90
56424;DHT22;42329;43.516;3.684;2022-09-12T02:27:43;16.90;99.90
56424;DHT22;42329;43.516;3.684;2022-09-12T02:30:11;16.80;99.90
56424;DHT22;42329;43.516;3.684;2022-09-12T02:32:42;16.80;99.90
56424;DHT22;42329;43.516;3.684;2022-09-12T02:35:12;16.80;99.90
56424;DHT22;42329;43.516;3.684;2022-09-12T02:37:48;16.80;99.90
56424;DHT22;42329;43.516;3.684;2022-09-12T02:40:19;16.80;99.90
56424;DHT22;42329;43.516;3.684;2022-09-12T02:42:46;16.80;99.90
56424;DHT22;42329;43.516;3.684;2022-09-12T02:45:13;16.80;99.90
56424;DHT22;42329;43.516;3.684;2022-09-12T02:47:41;16.70;99.90
56424;DHT22;42329;43.516;3.684;2022-09-12T02:50:09;16.70;99.90
56424;DHT22;42329;43.516;3.684;2022-09-12T02:52:36;16.70;99.90
56424;DHT22;42329;43.516;3.684;2022-09-12T02:55:06;16.70;99.90
56424;DHT22;42329;43.516;3.684;2022-09-12T02:57:34;16.70;99.90
56424;DHT22;42329;43.516;3.684;2022-09-12T03:00:01;16.70;99.90
56424;DHT22;42329;43.516;3.684;2022-09-12T03:02:31;16.70;99.90
56424;DHT22;42329;43.516;3.684;2022-09-12T03:07:56;16.60;99.90
56424;DHT22;42329;43.516;3.684;2022-09-12T03:10:26;16.60;99.90
56424;DHT22;42329;43.516;3.684;2022-09-12T03:13:00;16.60;99.90
56424;DHT22;42329;43.516;3.684;2022-09-12T03:15:32;16.60;99.90
56424;DHT22;42329;43.516;3.684;2022-09-12T03:18:03;16.60;99.90
56424;DHT22;42329;43.516;3.684;2022-09-12T03:20:36;16.50;99.90
56424;DHT22;42329;43.516;3.684;2022-09-12T03:23:08;16.50;99.90
56424;DHT22;42329;43.516;3.684;2022-09-12T03:25:39;16.50;99.90
56424;DHT22;42329;43.516;3.684;2022-09-12T03:28:09;16.50;99.90
56424;DHT22;42329;43.516;3.684;2022-09-12T03:30:37;16.50;99.90
56424;DHT22;42329;43.516;3.684;2022-09-12T03:33:05;16.50;99.90
56424;DHT22;42329;43.516;3.684;2022-09-12T03:35:32;16.40;99.90
56424;DHT22;42329;43.516;3.684;2022-09-12T03:37:59;16.40;99.90
56424;DHT22;42329;43.516;3.684;2022-09-12T03:40:26;16.30;99.90
56424;DHT22;42329;43.516;3.684;2022-09-12T03:42:54;16.30;99.90
56424;DHT22;42329;43.516;3.684;2022-09-12T03:45:21;16.20;99.90
56424;DHT22;42329;43.516;3.684;2022-09-12T03:47:48;16.20;99.90
56424;DHT22;42329;43.516;3.684;2022-09-12T03:50:15;16.10;99.90
56424;DHT22;42329;43.516;3.684;2022-09-12T03:52:42;16.20;99.90
56424;DHT22;42329;43.516;3.684;2022-09-12T03:55:09;16.10;99.90
56424;DHT22;42329;43.516;3.684;2022-09-12T03:57:36;16.10;99.90
56424;DHT22;42329;43.516;3.684;2022-09-12T04:00:06;16.10;99.90
56424;DHT22;42329;43.516;3.684;2022-09-12T04:02:33;16.20;99.90
56424;DHT22;42329;43.516;3.684;2022-09-12T04:05:00;16.20;99.90
56424;DHT22;42329;43.516;3.684;2022-09-12T04:07:27;16.20;99.90
56424;DHT22;42329;43.516;3.684;2022-09-12T04:09:54;16.20;99.90
56424;DHT22;42329;43.516;3.684;2022-09-12T04:12:21;16.20;99.90
56424;DHT22;42329;43.516;3.684;2022-09-12T04:14:48;16.20;99.90
56424;DHT22;42329;43.516;3.684;2022-09-12T04:17:17;16.20;99.90
56424;DHT22;42329;43.516;3.684;2022-09-12T04:19:44;16.20;99.90
56424;DHT22;42329;43.516;3.684;2022-09-12T04:22:11;16.20;99.90
56424;DHT22;42329;43.516;3.684;2022-09-12T04:24:38;16.20;99.90
56424;DHT22;42329;43.516;3.684;2022-09-12T04:27:05;16.20;99.90
56424;DHT22;42329;43.516;3.684;2022-09-12T04:29:32;16.20;99.90
56424;DHT22;42329;43.516;3.684;2022-09-12T04:32:00;16.20;99.90
56424;DHT22;42329;43.516;3.684;2022-09-12T04:34:30;16.30;99.90
56424;DHT22;42329;43.516;3.684;2022-09-12T04:36:57;16.30;99.90
56424;DHT22;42329;43.516;3.684;2022-09-12T04:39:24;16.30;99.90
56424;DHT22;42329;43.516;3.684;2022-09-12T04:41:51;16.30;99.90
56424;DHT22;42329;43.516;3.684;2022-09-12T04:44:18;16.30;99.90
56424;DHT22;42329;43.516;3.684;2022-09-12T04:46:45;16.30;99.90
56424;DHT22;42329;43.516;3.684;2022-09-12T04:49:13;16.40;99.90
56424;DHT22;42329;43.516;3.684;2022-09-12T04:51:43;16.40;99.90
56424;DHT22;42329;43.516;3.684;2022-09-12T04:54:12;16.40;99.90
56424;DHT22;42329;43.516;3.684;2022-09-12T04:56:40;16.40;99.90
56424;DHT22;42329;43.516;3.684;2022-09-12T04:59:09;16.30;99.90
56424;DHT22;42329;43.516;3.684;2022-09-12T05:01:36;16.30;99.90
56424;DHT22;42329;43.516;3.684;2022-09-12T05:04:03;16.30;99.90
56424;DHT22;42329;43.516;3.684;2022-09-12T05:06:30;16.30;99.90
56424;DHT22;42329;43.516;3.684;2022-09-12T05:08:59;16.30;99.90
56424;DHT22;42329;43.516;3.684;2022-09-12T05:11:27;16.20;99.90
56424;DHT22;42329;43.516;3.684;2022-09-12T05:13:54;16.20;99.90
56424;DHT22;42329;43.516;3.684;2022-09-12T05:16:21;16.30;99.90
56424;DHT22;42329;43.516;3.684;2022-09-12T05:18:48;16.20;99.90
56424;DHT22;42329;43.516;3.684;2022-09-12T05:21:17;16.20;99.90
56424;DHT22;42329;43.516;3.684;2022-09-12T05:23:44;16.20;99.90
56424;DHT22;42329;43.516;3.684;2022-09-12T05:26:14;16.20;99.90
56424;DHT22;42329;43.516;3.684;2022-09-12T05:28:42;16.20;99.90
56424;DHT22;42329;43.516;3.684;2022-09-12T05:31:10;16.10;99.90
56424;DHT22;42329;43.516;3.684;2022-09-12T05:33:39;16.10;99.90
56424;DHT22;42329;43.516;3.684;2022-09-12T05:36:08;16.10;99.90
56424;DHT22;42329;43.516;3.684;2022-09-12T05:38:35;16.10;99.90
56424;DHT22;42329;43.516;3.684;2022-09-12T05:41:03;16.10;99.90
56424;DHT22;42329;43.516;3.684;2022-09-12T05:43:32;16.00;99.90
56424;DHT22;42329;43.516;3.684;2022-09-12T05:45:59;16.00;99.90
56424;DHT22;42329;43.516;3.684;2022-09-12T05:48:26;16.00;99.90
56424;DHT22;42329;43.516;3.684;2022-09-12T05:50:58;15.90;99.90
56424;DHT22;42329;43.516;3.684;2022-09-12T05:53:26;15.90;99.90
56424;DHT22;42329;43.516;3.684;2022-09-12T05:56:00;15.90;99.90
56424;DHT22;42329;43.516;3.684;2022-09-12T05:58:27;15.90;99.90
56424;DHT22;42329;43.516;3.684;2022-09-12T06:01:00;15.90;99.90
56424;DHT22;42329;43.516;3.684;2022-09-12T06:03:27;15.90;99.90
56424;DHT22;42329;43.516;3.684;2022-09-12T06:05:54;15.90;99.90
56424;DHT22;42329;43.516;3.684;2022-09-12T06:08:21;16.00;99.90
56424;DHT22;42329;43.516;3.684;2022-09-12T06:10:48;16.10;99.90
56424;DHT22;42329;43.516;3.684;2022-09-12T06:13:15;16.20;99.90
56424;DHT22;42329;43.516;3.684;2022-09-12T06:15:42;16.30;99.90
56424;DHT22;42329;43.516;3.684;2022-09-12T06:18:10;16.40;99.90
56424;DHT22;42329;43.516;3.684;2022-09-12T06:20:37;16.40;99.90
56424;DHT22;42329;43.516;3.684;2022-09-12T06:23:04;16.50;99.90
56424;DHT22;42329;43.516;3.684;2022-09-12T06:25:31;16.60;99.90
56424;DHT22;42329;43.516;3.684;2022-09-12T06:27:58;16.60;99.90
56424;DHT22;42329;43.516;3.684;2022-09-12T06:30:25;16.70;99.90
56424;DHT22;42329;43.516;3.684;2022-09-12T06:32:52;16.70;99.90
56424;DHT22;42329;43.516;3.684;2022-09-12T06:35:22;16.80;99.90
56424;DHT22;42329;43.516;3.684;2022-09-12T06:37:49;16.80;99.90
56424;DHT22;42329;43.516;3.684;2022-09-12T06:40:16;16.90;99.90
56424;DHT22;42329;43.516;3.684;2022-09-12T06:42:43;17.00;99.90
56424;DHT22;42329;43.516;3.684;2022-09-12T06:45:10;17.10;99.90
56424;DHT22;42329;43.516;3.684;2022-09-12T06:47:40;17.20;99.90
56424;DHT22;42329;43.516;3.684;2022-09-12T06:50:08;17.20;99.90
56424;DHT22;42329;43.516;3.684;2022-09-12T06:52:36;17.30;99.90
56424;DHT22;42329;43.516;3.684;2022-09-12T06:55:04;17.40;99.90
56424;DHT22;42329;43.516;3.684;2022-09-12T06:57:31;17.40;99.90
56424;DHT22;42329;43.516;3.684;2022-09-12T07:00:01;17.50;99.90
56424;DHT22;42329;43.516;3.684;2022-09-12T07:02:28;17.50;99.90
56424;DHT22;42329;43.516;3.684;2022-09-12T07:04:55;17.60;99.90
56424;DHT22;42329;43.516;3.684;2022-09-12T07:07:22;17.60;99.90
56424;DHT22;42329;43.516;3.684;2022-09-12T07:09:51;17.70;99.90
56424;DHT22;42329;43.516;3.684;2022-09-12T07:12:18;17.70;99.90
56424;DHT22;42329;43.516;3.684;2022-09-12T07:14:45;17.80;99.90
56424;DHT22;42329;43.516;3.684;2022-09-12T07:17:12;17.80;99.90
56424;DHT22;42329;43.516;3.684;2022-09-12T07:19:39;17.90;99.90
56424;DHT22;42329;43.516;3.684;2022-09-12T07:22:06;18.00;99.90
56424;DHT22;42329;43.516;3.684;2022-09-12T07:24:33;18.00;99.90
56424;DHT22;42329;43.516;3.684;2022-09-12T07:27:01;18.10;99.90
56424;DHT22;42329;43.516;3.684;2022-09-12T07:29:28;18.20;99.90
56424;DHT22;42329;43.516;3.684;2022-09-12T07:31:55;18.20;99.90
56424;DHT22;42329;43.516;3.684;2022-09-12T07:34:22;18.20;99.90
56424;DHT22;42329;43.516;3.684;2022-09-12T07:36:49;18.30;99.90
56424;DHT22;42329;43.516;3.684;2022-09-12T07:39:16;18.30;99.90
56424;DHT22;42329;43.516;3.684;2022-09-12T07:41:44;18.40;99.90
56424;DHT22;42329;43.516;3.684;2022-09-12T07:44:13;18.40;99.90
56424;DHT22;42329;43.516;3.684;2022-09-12T07:46:40;18.50;99.90
56424;DHT22;42329;43.516;3.684;2022-09-12T07:49:07;18.60;99.90
56424;DHT22;42329;43.516;3.684;2022-09-12T07:51:34;18.60;99.90
56424;DHT22;42329;43.516;3.684;2022-09-12T07:54:01;18.60;99.90
56424;DHT22;42329;43.516;3.684;2022-09-12T07:56:33;18.70;99.90
56424;DHT22;42329;43.516;3.684;2022-09-12T07:59:00;18.70;99.90
56424;DHT22;42329;43.516;3.684;2022-09-12T08:01:29;18.80;99.90
56424;DHT22;42329;43.516;3.684;2022-09-12T08:03:57;18.80;99.90
56424;DHT22;42329;43.516;3.684;2022-09-12T08:06:24;18.90;99.90
56424;DHT22;42329;43.516;3.684;2022-09-12T08:08:53;19.00;99.90
56424;DHT22;42329;43.516;3.684;2022-09-12T08:11:20;19.00;99.90
56424;DHT22;42329;43.516;3.684;2022-09-12T08:13:47;19.10;99.90
56424;DHT22;42329;43.516;3.684;2022-09-12T08:16:17;19.10;99.90
56424;DHT22;42329;43.516;3.684;2022-09-12T08:18:46;19.20;99.90
56424;DHT22;42329;43.516;3.684;2022-09-12T08:21:14;19.30;99.90
56424;DHT22;42329;43.516;3.684;2022-09-12T08:23:42;19.30;99.90
56424;DHT22;42329;43.516;3.684;2022-09-12T08:26:09;19.30;99.90
56424;DHT22;42329;43.516;3.684;2022-09-12T08:28:37;19.40;99.90
56424;DHT22;42329;43.516;3.684;2022-09-12T08:31:05;19.40;99.90
56424;DHT22;42329;43.516;3.684;2022-09-12T08:33:33;19.40;99.90
56424;DHT22;42329;43.516;3.684;2022-09-12T08:36:06;19.50;99.90
56424;DHT22;42329;43.516;3.684;2022-09-12T08:38:34;19.50;99.90
56424;DHT22;42329;43.516;3.684;2022-09-12T08:41:03;19.60;99.90
56424;DHT22;42329;43.516;3.684;2022-09-12T08:43:37;19.60;99.90
56424;DHT22;42329;43.516;3.684;2022-09-12T08:46:07;19.70;99.90
56424;DHT22;42329;43.516;3.684;2022-09-12T08:48:36;19.70;99.90
56424;DHT22;42329;43.516;3.684;2022-09-12T08:51:06;19.70;99.90
56424;DHT22;42329;43.516;3.684;2022-09-12T08:53:36;19.70;99.80
56424;DHT22;42329;43.516;3.684;2022-09-12T08:56:03;19.80;99.70
56424;DHT22;42329;43.516;3.684;2022-09-12T08:58:34;19.80;99.50
56424;DHT22;42329;43.516;3.684;2022-09-12T09:01:05;19.90;99.50
56424;DHT22;42329;43.516;3.684;2022-09-12T09:06:22;20.00;99.40
56424;DHT22;42329;43.516;3.684;2022-09-12T09:08:54;20.00;99.40
56424;DHT22;42329;43.516;3.684;2022-09-12T09:11:30;20.10;99.30
56424;DHT22;42329;43.516;3.684;2022-09-12T09:14:02;20.10;99.40
56424;DHT22;42329;43.516;3.684;2022-09-12T09:16:48;20.10;99.30
56424;DHT22;42329;43.516;3.684;2022-09-12T09:19:17;20.20;99.30
56424;DHT22;42329;43.516;3.684;2022-09-12T09:21:46;20.20;99.30
56424;DHT22;42329;43.516;3.684;2022-09-12T09:24:16;20.30;99.40
56424;DHT22;42329;43.516;3.684;2022-09-12T09:26:45;20.30;99.40
56424;DHT22;42329;43.516;3.684;2022-09-12T09:29:16;20.40;99.40
56424;DHT22;42329;43.516;3.684;2022-09-12T09:31:44;20.40;99.40
56424;DHT22;42329;43.516;3.684;2022-09-12T09:34:14;20.40;99.40
56424;DHT22;42329;43.516;3.684;2022-09-12T09:36:47;20.40;99.30
56424;DHT22;42329;43.516;3.684;2022-09-12T09:39:17;20.50;99.30
56424;DHT22;42329;43.516;3.684;2022-09-12T09:41:48;20.50;99.20
56424;DHT22;42329;43.516;3.684;2022-09-12T09:44:17;20.50;98.70
56424;DHT22;42329;43.516;3.684;2022-09-12T09:46:45;20.60;98.90
56424;DHT22;42329;43.516;3.684;2022-09-12T09:49:12;20.70;98.50
56424;DHT22;42329;43.516;3.684;2022-09-12T09:51:41;20.70;98.40
56424;DHT22;42329;43.516;3.684;2022-09-12T09:54:13;20.80;98.40
56424;DHT22;42329;43.516;3.684;2022-09-12T09:56:43;20.80;97.90
56424;DHT22;42329;43.516;3.684;2022-09-12T09:59:10;20.80;97.90
56424;DHT22;42329;43.516;3.684;2022-09-12T10:01:42;20.90;97.60
56424;DHT22;42329;43.516;3.684;2022-09-12T10:04:16;21.00;97.40
56424;DHT22;42329;43.516;3.684;2022-09-12T10:06:43;21.00;97.30
56424;DHT22;42329;43.516;3.684;2022-09-12T10:09:18;21.10;97.10
56424;DHT22;42329;43.516;3.684;2022-09-12T10:11:46;21.20;97.00
56424;DHT22;42329;43.516;3.684;2022-09-12T10:17:24;21.30;96.70
56424;DHT22;42329;43.516;3.684;2022-09-12T10:19:52;21.30;96.70
56424;DHT22;42329;43.516;3.684;2022-09-12T10:22:20;21.40;96.90
56424;DHT22;42329;43.516;3.684;2022-09-12T10:24:50;21.40;96.90
56424;DHT22;42329;43.516;3.684;2022-09-12T10:27:19;21.50;96.80
56424;DHT22;42329;43.516;3.684;2022-09-12T10:29:47;21.60;96.60
56424;DHT22;42329;43.516;3.684;2022-09-12T10:32:18;21.60;96.60
56424;DHT22;42329;43.516;3.684;2022-09-12T10:34:47;21.70;96.70
56424;DHT22;42329;43.516;3.684;2022-09-12T10:37:18;21.70;96.30
56424;DHT22;42329;43.516;3.684;2022-09-12T10:39:50;21.70;96.20
56424;DHT22;42329;43.516;3.684;2022-09-12T10:45:00;21.90;96.30
56424;DHT22;42329;43.516;3.684;2022-09-12T10:47:27;22.00;96.30
56424;DHT22;42329;43.516;3.684;2022-09-12T10:49:59;22.20;96.10
56424;DHT22;42329;43.516;3.684;2022-09-12T10:52:44;22.30;95.90
56424;DHT22;42329;43.516;3.684;2022-09-12T10:55:13;22.40;96.10
56424;DHT22;42329;43.516;3.684;2022-09-12T10:57:45;22.50;95.90
56424;DHT22;42329;43.516;3.684;2022-09-12T11:00:16;22.60;95.70
56424;DHT22;42329;43.516;3.684;2022-09-12T11:02:57;22.60;95.80
56424;DHT22;42329;43.516;3.684;2022-09-12T11:05:32;22.70;95.90
56424;DHT22;42329;43.516;3.684;2022-09-12T11:08:06;22.70;96.00
56424;DHT22;42329;43.516;3.684;2022-09-12T11:10:39;22.80;96.10
56424;DHT22;42329;43.516;3.684;2022-09-12T11:13:15;22.80;96.20
56424;DHT22;42329;43.516;3.684;2022-09-12T11:15:48;22.90;96.10
56424;DHT22;42329;43.516;3.684;2022-09-12T11:18:26;22.90;96.10
56424;DHT22;42329;43.516;3.684;2022-09-12T11:23:45;23.00;96.40
56424;DHT22;42329;43.516;3.684;2022-09-12T11:26:25;23.10;96.50
56424;DHT22;42329;43.516;3.684;2022-09-12T11:28:59;23.10;96.50
56424;DHT22;42329;43.516;3.684;2022-09-12T11:31:37;23.20;96.60
56424;DHT22;42329;43.516;3.684;2022-09-12T11:34:07;23.20;96.60
56424;DHT22;42329;43.516;3.684;2022-09-12T11:36:36;23.30;96.80
56424;DHT22;42329;43.516;3.684;2022-09-12T11:39:16;23.40;96.80
56424;DHT22;42329;43.516;3.684;2022-09-12T11:41:48;23.50;96.80
56424;DHT22;42329;43.516;3.684;2022-09-12T11:44:18;23.50;96.80
56424;DHT22;42329;43.516;3.684;2022-09-12T11:46:47;23.60;96.80
56424;DHT22;42329;43.516;3.684;2022-09-12T11:49:19;23.60;96.90
56424;DHT22;42329;43.516;3.684;2022-09-12T11:51:50;23.70;97.00
56424;DHT22;42329;43.516;3.684;2022-09-12T11:54:20;23.70;97.10
56424;DHT22;42329;43.516;3.684;2022-09-12T11:56:50;23.80;97.30
56424;DHT22;42329;43.516;3.684;2022-09-12T11:59:24;23.90;97.60
56424;DHT22;42329;43.516;3.684;2022-09-12T12:01:55;24.00;97.50
56424;DHT22;42329;43.516;3.684;2022-09-12T12:04:27;24.00;97.60
56424;DHT22;42329;43.516;3.684;2022-09-12T12:06:57;24.10;97.70
56424;DHT22;42329;43.516;3.684;2022-09-12T12:09:28;24.10;97.70
56424;DHT22;42329;43.516;3.684;2022-09-12T12:11:57;24.20;97.70
56424;DHT22;42329;43.516;3.684;2022-09-12T12:14:28;24.30;98.90
56424;DHT22;42329;43.516;3.684;2022-09-12T12:16:57;24.40;99.30
56424;DHT22;42329;43.516;3.684;2022-09-12T12:19:29;24.40;99.20
56424;DHT22;42329;43.516;3.684;2022-09-12T12:22:02;24.50;99.20
56424;DHT22;42329;43.516;3.684;2022-09-12T12:24:31;24.50;99.50
56424;DHT22;42329;43.516;3.684;2022-09-12T12:27:01;24.50;99.50
56424;DHT22;42329;43.516;3.684;2022-09-12T12:37:53;24.70;99.80
56424;DHT22;42329;43.516;3.684;2022-09-12T12:40:25;24.80;99.70
56424;DHT22;42329;43.516;3.684;2022-09-12T12:42:58;24.80;99.90
56424;DHT22;42329;43.516;3.684;2022-09-12T12:48:13;24.90;99.90
56424;DHT22;42329;43.516;3.684;2022-09-12T12:50:40;25.00;99.90
56424;DHT22;42329;43.516;3.684;2022-09-12T12:53:14;25.00;99.90
56424;DHT22;42329;43.516;3.684;2022-09-12T12:55:45;25.00;99.90
56424;DHT22;42329;43.516;3.684;2022-09-12T12:58:21;25.10;99.90
56424;DHT22;42329;43.516;3.684;2022-09-12T13:01:01;25.10;99.90
56424;DHT22;42329;43.516;3.684;2022-09-12T13:03:29;25.10;99.90
56424;DHT22;42329;43.516;3.684;2022-09-12T13:05:58;25.20;99.90
56424;DHT22;42329;43.516;3.684;2022-09-12T13:08:27;25.10;99.90
56424;DHT22;42329;43.516;3.684;2022-09-12T13:10:57;25.10;99.90
56424;DHT22;42329;43.516;3.684;2022-09-12T13:13:27;25.10;99.90
56424;DHT22;42329;43.516;3.684;2022-09-12T13:15:56;25.20;99.90
56424;DHT22;42329;43.516;3.684;2022-09-12T13:18:24;25.20;99.90
56424;DHT22;42329;43.516;3.684;2022-09-12T13:20:54;25.20;99.90
56424;DHT22;42329;43.516;3.684;2022-09-12T13:23:23;25.10;99.90
56424;DHT22;42329;43.516;3.684;2022-09-12T13:25:51;25.10;99.90
56424;DHT22;42329;43.516;3.684;2022-09-12T13:28:18;25.10;99.90
56424;DHT22;42329;43.516;3.684;2022-09-12T13:30:47;25.10;99.90
56424;DHT22;42329;43.516;3.684;2022-09-12T13:33:20;25.10;99.90
56424;DHT22;42329;43.516;3.684;2022-09-12T13:36:06;25.10;99.90
56424;DHT22;42329;43.516;3.684;2022-09-12T13:38:37;25.10;99.90
56424;DHT22;42329;43.516;3.684;2022-09-12T13:41:14;25.10;99.90
56424;DHT22;42329;43.516;3.684;2022-09-12T13:43:44;25.10;99.90
56424;DHT22;42329;43.516;3.684;2022-09-12T13:46:14;25.10;99.90
56424;DHT22;42329;43.516;3.684;2022-09-12T13:48:42;25.10;99.90
56424;DHT22;42329;43.516;3.684;2022-09-12T13:51:17;25.00;99.90
56424;DHT22;42329;43.516;3.684;2022-09-12T13:53:47;25.10;99.90
56424;DHT22;42329;43.516;3.684;2022-09-12T13:56:15;25.10;99.90
56424;DHT22;42329;43.516;3.684;2022-09-12T13:58:49;25.00;99.90
56424;DHT22;42329;43.516;3.684;2022-09-12T14:01:19;25.10;99.90
56424;DHT22;42329;43.516;3.684;2022-09-12T14:03:50;25.10;99.90
56424;DHT22;42329;43.516;3.684;2022-09-12T14:06:42;25.10;99.90
56424;DHT22;42329;43.516;3.684;2022-09-12T14:09:12;25.10;99.90
56424;DHT22;42329;43.516;3.684;2022-09-12T14:11:40;25.10;99.90
56424;DHT22;42329;43.516;3.684;2022-09-12T14:14:14;25.20;99.90
56424;DHT22;42329;43.516;3.684;2022-09-12T14:16:44;25.20;99.90
56424;DHT22;42329;43.516;3.684;2022-09-12T14:19:12;25.20;99.90
56424;DHT22;42329;43.516;3.684;2022-09-12T14:21:40;25.20;99.90
56424;DHT22;42329;43.516;3.684;2022-09-12T14:24:08;25.20;99.90
56424;DHT22;42329;43.516;3.684;2022-09-12T14:26:36;25.30;99.90
56424;DHT22;42329;43.516;3.684;2022-09-12T14:29:05;25.20;99.90
56424;DHT22;42329;43.516;3.684;2022-09-12T14:31:33;25.20;99.90
56424;DHT22;42329;43.516;3.684;2022-09-12T14:34:12;25.20;99.90
56424;DHT22;42329;43.516;3.684;2022-09-12T14:36:41;25.20;99.90
56424;DHT22;42329;43.516;3.684;2022-09-12T14:39:17;25.20;99.90
56424;DHT22;42329;43.516;3.684;2022-09-12T14:41:46;25.20;99.90
56424;DHT22;42329;43.516;3.684;2022-09-12T14:44:15;25.20;99.90
56424;DHT22;42329;43.516;3.684;2022-09-12T14:46:43;25.20;99.90
56424;DHT22;42329;43.516;3.684;2022-09-12T14:49:14;25.20;99.90
56424;DHT22;42329;43.516;3.684;2022-09-12T14:51:44;25.20;99.90
56424;DHT22;42329;43.516;3.684;2022-09-12T14:57:01;25.20;99.90
56424;DHT22;42329;43.516;3.684;2022-09-12T14:59:29;25.20;99.90
56424;DHT22;42329;43.516;3.684;2022-09-12T15:04:44;25.30;99.90
56424;DHT22;42329;43.516;3.684;2022-09-12T15:07:13;25.30;99.90
56424;DHT22;42329;43.516;3.684;2022-09-12T15:09:40;25.30;99.90
56424;DHT22;42329;43.516;3.684;2022-09-12T15:12:08;25.30;99.90
56424;DHT22;42329;43.516;3.684;2022-09-12T15:14:35;25.30;99.90
56424;DHT22;42329;43.516;3.684;2022-09-12T15:17:02;25.40;99.90
56424;DHT22;42329;43.516;3.684;2022-09-12T15:19:29;25.40;99.90
56424;DHT22;42329;43.516;3.684;2022-09-12T15:21:58;25.40;99.90
56424;DHT22;42329;43.516;3.684;2022-09-12T15:24:25;25.40;99.90
56424;DHT22;42329;43.516;3.684;2022-09-12T15:26:52;25.50;99.90
56424;DHT22;42329;43.516;3.684;2022-09-12T15:29:19;25.40;99.90
56424;DHT22;42329;43.516;3.684;2022-09-12T15:31:46;25.40;99.90
56424;DHT22;42329;43.516;3.684;2022-09-12T15:34:13;25.50;99.90
56424;DHT22;42329;43.516;3.684;2022-09-12T15:36:40;25.50;99.90
56424;DHT22;42329;43.516;3.684;2022-09-12T15:39:08;25.40;99.90
56424;DHT22;42329;43.516;3.684;2022-09-12T15:41:36;25.40;99.90
56424;DHT22;42329;43.516;3.684;2022-09-12T15:44:04;25.40;99.90
56424;DHT22;42329;43.516;3.684;2022-09-12T15:46:32;25.40;99.90
56424;DHT22;42329;43.516;3.684;2022-09-12T15:48:59;25.50;99.90
56424;DHT22;42329;43.516;3.684;2022-09-12T15:51:26;25.40;99.90
56424;DHT22;42329;43.516;3.684;2022-09-12T15:53:53;25.50;99.90
56424;DHT22;42329;43.516;3.684;2022-09-12T15:56:21;25.50;99.90
56424;DHT22;42329;43.516;3.684;2022-09-12T15:58:49;25.50;99.90
56424;DHT22;42329;43.516;3.684;2022-09-12T16:01:16;25.50;99.90
56424;DHT22;42329;43.516;3.684;2022-09-12T16:03:44;25.50;99.90
56424;DHT22;42329;43.516;3.684;2022-09-12T16:06:11;25.50;99.90
56424;DHT22;42329;43.516;3.684;2022-09-12T16:08:39;25.40;99.90
56424;DHT22;42329;43.516;3.684;2022-09-12T16:11:08;25.40;99.90
56424;DHT22;42329;43.516;3.684;2022-09-12T16:13:38;25.50;99.90
56424;DHT22;42329;43.516;3.684;2022-09-12T16:16:06;25.40;99.90